»·PEaware :: N137TH KSBA-KSNA

N137TH :: KSBA-KSNA

FLIGHT INFORMATION

Flight Status: Arrived
Operator: Privately registered:
United States
More flights under this callsign
Pilot: Teofilo H. (11827)
Aircraft: BEECH AIRCRAFT SUPER KING AIR COMMUTER
(BE20)
More flights by this aircraft type
Origin: KSBA Santa Barbara Mun
United States
Destination: KSNA John Wayne-Orange Co
United States
More flights between these airports :: More routes between these airports
Route: +KWANG VTU V208 SXC SLI
File this flight plan on PilotEdge
Remarks:
Altitude:
(Current/Filed)
9,000ft
Speed:
(Current/Filed)
250kts
Departed: 08-Jan-18 04:02 PM
Arrived: 08-Jan-18 04:39 PM
Distance/Time
Traveled:
108nm/0:37
Distance/Time
To Go:
Arrived

Flight Plot

Page will automatically refresh every two minutes.


Map Options




Map Legend


Flown Route
Filed Route
Departure Airport
Arrival Airport
Navaid (VOR, NDB)
Fix

Horizontal Profiles

Position Reports

Time Latitude Longitude Heading Altitude Ground
Speed
08-Jan-18 15:40 34.422767 -119.835862 255 10ft 0kts
08-Jan-18 15:41 34.422767 -119.835862 255 10ft 0kts
08-Jan-18 15:42 34.422767 -119.835862 255 10ft 0kts
08-Jan-18 15:43 34.422767 -119.835862 255 10ft 0kts
08-Jan-18 15:46 34.422767 -119.835862 255 10ft 0kts
08-Jan-18 15:47 34.422767 -119.835862 255 10ft 0kts
08-Jan-18 15:48 34.422767 -119.835862 255 10ft 0kts
08-Jan-18 15:49 34.422767 -119.835862 255 10ft 0kts
08-Jan-18 15:50 34.422767 -119.835862 255 10ft 0kts
08-Jan-18 15:51 34.422767 -119.835862 255 10ft 0kts
08-Jan-18 15:52 34.422767 -119.835862 255 10ft 0kts
08-Jan-18 15:53 34.422767 -119.835862 255 10ft 0kts
08-Jan-18 15:54 34.422767 -119.835862 255 10ft 0kts
08-Jan-18 15:55 34.422767 -119.835862 255 10ft 0kts
08-Jan-18 15:56 34.422767 -119.835862 255 10ft 0kts
08-Jan-18 15:57 34.422767 -119.835862 255 10ft 0kts
08-Jan-18 15:58 34.422767 -119.835862 255 10ft 0kts
08-Jan-18 15:59 34.422767 -119.835862 255 10ft 0kts
08-Jan-18 16:00 34.422767 -119.835862 255 10ft 0kts
08-Jan-18 16:01 34.423301 -119.837267 323 11ft 12kts
08-Jan-18 16:02 34.426656 -119.838140 48 10ft 12kts
08-Jan-18 16:03 34.426964 -119.835261 26 10ft 0kts
08-Jan-18 16:04 34.427058 -119.835223 5 10ft 0kts
08-Jan-18 16:05 34.427910 -119.835311 358 10ft 23kts
08-Jan-18 16:06 34.430608 -119.839705 295 13ft 0kts
08-Jan-18 16:07 34.430608 -119.839705 295 13ft 0kts
08-Jan-18 16:08 34.417234 -119.836733 165 451ft 108kts
08-Jan-18 16:09 34.379539 -119.827301 164 1876ft 166kts
08-Jan-18 16:10 34.335715 -119.804705 152 3493ft 178kts
08-Jan-18 16:11 34.291589 -119.778029 152 5102ft 180kts
08-Jan-18 16:12 34.246167 -119.750477 152 6687ft 188kts
08-Jan-18 16:13 34.198707 -119.721633 152 7991ft 203kts
08-Jan-18 16:14 34.145697 -119.685430 152 7994ft 230kts
08-Jan-18 16:15 34.099197 -119.636891 131 8962ft 225kts
08-Jan-18 16:16 34.061473 -119.571985 131 9017ft 246kts
08-Jan-18 16:17 34.021705 -119.504075 130 9020ft 251kts
08-Jan-18 16:18 33.981679 -119.435963 130 9019ft 251kts
08-Jan-18 16:19 33.941446 -119.367698 130 9019ft 252kts
08-Jan-18 16:20 33.909040 -119.312802 131 9017ft 252kts
08-Jan-18 16:21 33.869407 -119.245774 131 9025ft 252kts
08-Jan-18 16:22 33.828961 -119.177509 131 9025ft 252kts
08-Jan-18 16:23 33.788512 -119.109425 131 9024ft 254kts
08-Jan-18 16:24 33.747416 -119.040246 131 9024ft 252kts
08-Jan-18 16:25 33.707115 -118.972558 131 9045ft 251kts
08-Jan-18 16:26 33.666225 -118.904089 131 9051ft 253kts
08-Jan-18 16:27 33.624993 -118.835154 131 9051ft 254kts
08-Jan-18 16:28 33.583882 -118.766498 131 9051ft 254kts
08-Jan-18 16:29 33.546466 -118.704198 131 9050ft 255kts
08-Jan-18 16:30 33.510557 -118.643168 120 9029ft 261kts
08-Jan-18 16:31 33.520741 -118.554061 82 9005ft 280kts
08-Jan-18 16:32 33.537424 -118.465988 81 7490ft 260kts
08-Jan-18 16:33 33.550283 -118.386336 81 5715ft 239kts
08-Jan-18 16:34 33.561339 -118.314330 82 5008ft 233kts
08-Jan-18 16:35 33.572733 -118.237305 82 5005ft 239kts
08-Jan-18 16:36 33.583621 -118.159073 82 4981ft 243kts
08-Jan-18 16:37 33.592294 -118.078962 82 4984ft 245kts
08-Jan-18 16:38 33.621938 -118.013310 33 4997ft 244kts
08-Jan-18 16:39 33.677681 -117.970871 32 4981ft 246kts
08-Jan-18 16:40 33.733191 -117.928316 32 4976ft 245kts
08-Jan-18 16:41 33.783564 -117.887653 52 4683ft 195kts
08-Jan-18 16:42 33.765159 -117.842507 177 2990ft 193kts
08-Jan-18 16:43 33.711999 -117.846370 202 1095ft 202kts
08-Jan-18 16:44 33.673193 -117.870364 212 50ft 66kts
08-Jan-18 16:45 33.669065 -117.871418 122 53ft 12kts
08-Jan-18 16:46 33.672816 -117.867464 73 49ft 16kts
08-Jan-18 16:47 33.672367 -117.865980 291 47ft 0kts
08-Jan-18 16:48 33.672367 -117.865980 291 47ft 0kts
08-Jan-18 16:49 33.672367 -117.865980 291 47ft 0kts
08-Jan-18 16:50 33.672367 -117.865980 291 47ft 0kts
08-Jan-18 16:51 33.672367 -117.865980 291 47ft 0kts
08-Jan-18 16:52 33.672367 -117.865980 291 47ft 0kts
08-Jan-18 16:53 33.672367 -117.865980 291 47ft 0kts
08-Jan-18 16:54 33.672367 -117.865980 291 47ft 0kts
08-Jan-18 16:55 33.672367 -117.865980 291 47ft 0kts
08-Jan-18 16:56 33.672367 -117.865980 291 47ft 0kts
08-Jan-18 16:57 33.672367 -117.865980 291 47ft 0kts
08-Jan-18 16:58 33.672367 -117.865980 291 47ft 0kts
08-Jan-18 16:59 33.672367 -117.865980 291 47ft 0kts

Navigation Log

Ident Type
1. KSBA Airport
2. KWANG Fix
3. VTU Navaid
4. WEEZL Fix
5. SXC Navaid
6. SLI Navaid
7. KSNA Airport